Time;durP1;ratioP1;P1;durP2;ratioP2;P2;SDS_P1;SDS_P2;PMS_P1;PMS_P2;Temp;Humidity;BMP_temperature;BMP_pressure;BME280_temperature;BME280_humidity;BME280_pressure;Samples;Min_cycle;Max_cycle;Signal;HPM_P1;HPM_P2
2020/12/23 00:00:07;;;;;;;27.42;12.80;;;13.20;99.90;;;;;;3623216;39;20256;-75
2020/12/23 00:02:34;;;;;;;26.65;15.25;;;13.20;99.90;;;;;;3623037;39;20690;-76
2020/12/23 00:05:00;;;;;;;29.40;13.50;;;13.20;99.90;;;;;;3623022;39;20243;-76
2020/12/23 00:07:26;;;;;;;27.75;13.10;;;13.20;99.90;;;;;;3620601;39;20272;-77
2020/12/23 00:09:53;;;;;;;24.73;13.32;;;13.20;99.90;;;;;;3619604;39;20255;-77
2020/12/23 00:12:19;;;;;;;32.85;13.43;;;13.20;99.90;;;;;;3621012;39;20272;-77
2020/12/23 00:14:46;;;;;;;29.60;13.65;;;13.10;99.90;;;;;;3625700;39;20279;-77
2020/12/23 00:17:17;;;;;;;26.27;13.30;;;13.10;99.90;;;;;;3623844;39;20870;-77
2020/12/23 00:19:43;;;;;;;27.40;13.90;;;13.00;99.90;;;;;;3624935;39;20764;-77
2020/12/23 00:22:10;;;;;;;28.10;13.75;;;13.00;99.90;;;;;;3623225;39;20744;-77
2020/12/23 00:24:36;;;;;;;26.20;12.70;;;13.00;99.90;;;;;;3621715;39;20264;-77
2020/12/23 00:27:03;;;;;;;34.42;14.38;;;12.90;99.90;;;;;;3625219;39;20276;-76
2020/12/23 00:29:29;;;;;;;30.13;13.50;;;12.90;99.90;;;;;;3621386;39;20252;-77
2020/12/23 00:31:55;;;;;;;29.00;13.75;;;12.80;99.90;;;;;;3621536;39;20351;-76
2020/12/23 00:34:23;;;;;;;26.33;12.80;;;12.80;99.90;;;;;;3637492;31;20267;-77
2020/12/23 00:36:54;;;;;;;29.35;12.38;;;12.80;99.90;;;;;;3622459;39;20294;-77
2020/12/23 00:39:21;;;;;;;28.38;12.07;;;12.80;99.90;;;;;;3621849;39;20263;-77
2020/12/23 00:41:47;;;;;;;30.25;12.63;;;12.80;99.90;;;;;;3622041;39;20286;-77
2020/12/23 00:44:15;;;;;;;30.42;12.40;;;12.70;99.90;;;;;;3622664;39;20328;-77
2020/12/23 00:46:41;;;;;;;27.63;11.50;;;12.70;99.90;;;;;;3621412;39;20240;-76
2020/12/23 00:49:08;;;;;;;25.65;11.82;;;12.80;99.90;;;;;;3626099;32;20259;-77
2020/12/23 00:51:36;;;;;;;26.08;10.98;;;12.90;99.90;;;;;;3621418;39;20267;-77
2020/12/23 00:54:03;;;;;;;30.25;12.90;;;12.90;99.90;;;;;;3633245;31;20295;-77
2020/12/23 00:56:29;;;;;;;24.83;12.63;;;13.00;99.90;;;;;;3621524;39;20248;-77
2020/12/23 00:58:55;;;;;;;22.35;12.43;;;13.00;99.90;;;;;;3621107;39;20256;-77
2020/12/23 01:01:22;;;;;;;26.75;11.82;;;13.10;99.90;;;;;;3621036;39;20328;-77
2020/12/23 01:03:48;;;;;;;25.42;11.60;;;13.10;99.90;;;;;;3621735;39;20287;-77
2020/12/23 01:06:15;;;;;;;27.33;11.23;;;13.10;99.90;;;;;;3623453;39;20263;-77
2020/12/23 01:08:43;;;;;;;19.15;11.68;;;13.10;99.90;;;;;;3622234;39;20264;-77
2020/12/23 01:11:11;;;;;;;28.33;12.27;;;13.10;99.90;;;;;;3621536;39;20251;-78
2020/12/23 01:13:39;;;;;;;25.42;10.57;;;13.10;99.90;;;;;;3623822;39;20311;-77
2020/12/23 01:16:05;;;;;;;19.42;10.43;;;13.10;99.90;;;;;;3655146;32;20240;-77
2020/12/23 01:18:32;;;;;;;29.17;12.13;;;13.10;99.90;;;;;;3623510;39;20255;-77
2020/12/23 01:20:58;;;;;;;26.42;10.68;;;13.20;99.90;;;;;;3621423;39;20279;-77
2020/12/23 01:23:25;;;;;;;22.98;10.48;;;13.20;99.90;;;;;;3621602;39;20255;-77
2020/12/23 01:25:52;;;;;;;21.63;11.30;;;13.30;99.90;;;;;;3624555;39;20243;-77
2020/12/23 01:28:19;;;;;;;26.63;11.40;;;13.20;99.90;;;;;;3621900;39;20606;-77
2020/12/23 01:30:46;;;;;;;20.02;11.00;;;13.30;99.90;;;;;;3621564;39;20244;-77
2020/12/23 01:33:13;;;;;;;24.63;10.60;;;13.30;99.90;;;;;;3625162;39;20263;-77
2020/12/23 01:35:39;;;;;;;25.15;11.95;;;13.30;99.90;;;;;;3624829;39;20286;-77
2020/12/23 01:38:06;;;;;;;21.08;10.68;;;13.30;99.90;;;;;;3621876;39;20351;-77
2020/12/23 01:40:33;;;;;;;25.20;11.95;;;13.30;99.90;;;;;;3621392;39;20271;-77
2020/12/23 01:43:00;;;;;;;24.73;10.77;;;13.30;99.90;;;;;;3624858;39;20255;-77
2020/12/23 01:45:27;;;;;;;25.58;10.57;;;13.40;99.90;;;;;;3622932;39;20337;-77
2020/12/23 01:47:57;;;;;;;20.95;10.70;;;13.40;99.90;;;;;;3621232;39;20343;-77
2020/12/23 01:50:24;;;;;;;19.92;11.05;;;13.50;99.90;;;;;;3660096;31;20792;-77
2020/12/23 01:52:53;;;;;;;21.58;10.15;;;13.50;99.90;;;;;;3621309;39;20258;-77
2020/12/23 01:55:20;;;;;;;19.30;10.30;;;13.50;99.90;;;;;;3635166;32;20252;-77
2020/12/23 01:57:46;;;;;;;20.52;9.98;;;13.60;99.90;;;;;;3623296;39;20280;-77
2020/12/23 02:00:14;;;;;;;17.98;9.80;;;13.70;99.90;;;;;;3623549;39;20285;-77
2020/12/23 02:02:43;;;;;;;22.05;11.15;;;13.70;99.90;;;;;;3621814;39;20294;-77
2020/12/23 02:05:10;;;;;;;18.58;10.68;;;13.70;99.90;;;;;;3625461;32;20291;-77
2020/12/23 02:07:37;;;;;;;20.48;10.35;;;13.80;99.90;;;;;;3620630;39;20274;-77
2020/12/23 02:10:08;;;;;;;21.17;10.65;;;13.80;99.90;;;;;;3622601;39;20248;-77
2020/12/23 02:12:34;;;;;;;23.95;11.32;;;13.90;99.90;;;;;;3621686;39;20286;-77
2020/12/23 02:15:09;;;;;;;25.23;11.00;;;13.80;99.90;;;;;;3620764;39;20252;-77
2020/12/23 02:17:36;;;;;;;23.98;10.43;;;13.80;99.90;;;;;;3621010;39;20262;-77
2020/12/23 02:20:05;;;;;;;23.13;11.70;;;13.90;99.90;;;;;;3620604;39;20240;-77
2020/12/23 02:22:33;;;;;;;24.50;12.30;;;13.80;99.90;;;;;;3622205;39;20244;-77
2020/12/23 02:25:00;;;;;;;23.27;11.07;;;13.80;99.90;;;;;;3622848;39;20266;-77
2020/12/23 02:27:27;;;;;;;18.30;10.02;;;13.80;99.90;;;;;;3623011;39;20240;-77
2020/12/23 02:29:55;;;;;;;20.77;10.90;;;13.70;99.90;;;;;;3626014;39;20344;-77
2020/12/23 02:32:22;;;;;;;28.90;11.13;;;13.70;99.90;;;;;;3624616;39;20255;-77
2020/12/23 02:34:50;;;;;;;22.73;11.27;;;13.60;99.90;;;;;;3622988;39;20268;-77
2020/12/23 02:37:18;;;;;;;23.40;12.07;;;13.60;99.90;;;;;;3623000;39;20278;-77
2020/12/23 02:39:46;;;;;;;31.20;11.85;;;13.50;99.90;;;;;;3620504;39;20248;-77
2020/12/23 02:42:13;;;;;;;21.02;10.30;;;13.60;99.90;;;;;;3622049;39;20248;-77
2020/12/23 02:44:39;;;;;;;19.30;10.85;;;13.60;99.90;;;;;;3619846;39;20263;-77
2020/12/23 02:47:09;;;;;;;23.63;10.88;;;13.50;99.90;;;;;;3621485;39;20344;-77
2020/12/23 02:49:37;;;;;;;24.63;10.77;;;13.50;99.90;;;;;;3623689;39;20266;-77
2020/12/23 02:52:04;;;;;;;22.33;10.90;;;13.50;99.90;;;;;;3622717;39;20309;-77
2020/12/23 02:54:30;;;;;;;24.08;10.77;;;13.40;99.90;;;;;;3619873;39;20347;-76
2020/12/23 02:56:58;;;;;;;16.38;10.60;;;13.40;99.90;;;;;;3620513;39;20244;-77
2020/12/23 02:59:24;;;;;;;21.10;11.18;;;13.40;99.90;;;;;;3620182;39;20302;-76
2020/12/23 03:01:51;;;;;;;17.90;10.90;;;13.40;99.90;;;;;;3622100;39;20289;-76
2020/12/23 03:04:17;;;;;;;24.08;10.98;;;13.40;99.90;;;;;;3621560;39;20312;-76
2020/12/23 03:06:44;;;;;;;20.65;11.13;;;13.50;99.90;;;;;;3620231;39;20244;-76
2020/12/23 03:09:12;;;;;;;18.83;11.15;;;13.40;99.90;;;;;;3620661;39;20293;-76
2020/12/23 03:11:40;;;;;;;26.63;11.10;;;13.50;99.90;;;;;;3620001;39;20287;-77
2020/12/23 03:14:08;;;;;;;25.63;11.77;;;13.50;99.90;;;;;;3622788;39;20247;-77
2020/12/23 03:16:35;;;;;;;22.33;11.88;;;13.40;99.90;;;;;;3623204;39;20244;-76
2020/12/23 03:19:01;;;;;;;22.00;12.55;;;13.40;99.90;;;;;;3620977;39;20344;-76
2020/12/23 03:21:28;;;;;;;30.83;13.10;;;13.40;99.90;;;;;;3620005;39;20264;-76
2020/12/23 03:23:54;;;;;;;20.52;11.95;;;13.40;99.90;;;;;;3620177;39;20251;-76
2020/12/23 03:26:21;;;;;;;22.95;12.13;;;13.40;99.90;;;;;;3620725;39;20244;-76
2020/12/23 03:28:48;;;;;;;25.05;12.95;;;13.30;99.90;;;;;;3622888;39;20252;-76
2020/12/23 03:31:16;;;;;;;22.17;11.52;;;13.30;99.90;;;;;;3620844;39;20523;-77
2020/12/23 03:33:43;;;;;;;21.77;12.50;;;13.30;99.90;;;;;;3618965;39;20340;-76
2020/12/23 03:36:09;;;;;;;34.50;12.40;;;13.30;99.90;;;;;;3620509;39;20286;-77
2020/12/23 03:38:36;;;;;;;24.17;11.55;;;13.30;99.90;;;;;;3619778;39;20264;-76
2020/12/23 03:41:03;;;;;;;20.63;11.93;;;13.30;99.90;;;;;;3620195;39;20279;-76
2020/12/23 03:43:30;;;;;;;21.27;11.50;;;13.30;99.90;;;;;;3620929;39;20760;-76
2020/12/23 03:45:56;;;;;;;37.38;12.15;;;13.30;99.90;;;;;;3622470;39;20243;-77
2020/12/23 03:48:24;;;;;;;27.10;11.63;;;13.20;99.90;;;;;;3624511;39;20244;-77
2020/12/23 03:50:50;;;;;;;21.58;12.13;;;13.20;99.90;;;;;;3624167;39;20299;-76
2020/12/23 03:53:17;;;;;;;20.95;12.18;;;13.20;99.90;;;;;;3625725;39;20299;-76
2020/12/23 03:55:43;;;;;;;23.35;12.75;;;13.20;99.90;;;;;;3622062;39;20289;-76
2020/12/23 03:58:10;;;;;;;22.02;12.02;;;13.30;99.90;;;;;;3624170;39;20251;-76
2020/12/23 04:00:36;;;;;;;19.98;12.18;;;13.20;99.90;;;;;;3622797;39;20355;-76
2020/12/23 04:03:03;;;;;;;23.35;12.20;;;13.20;99.90;;;;;;3623552;39;20267;-76
2020/12/23 04:05:30;;;;;;;26.60;12.30;;;13.20;99.90;;;;;;3625355;39;20244;-76
2020/12/23 04:07:57;;;;;;;22.88;12.02;;;13.20;99.90;;;;;;3622536;39;21030;-76
2020/12/23 04:10:23;;;;;;;18.35;10.90;;;13.20;99.90;;;;;;3621913;39;20240;-76
2020/12/23 04:12:50;;;;;;;24.90;10.52;;;13.20;99.90;;;;;;3625925;39;20251;-76
2020/12/23 04:15:16;;;;;;;22.73;12.23;;;13.30;99.90;;;;;;3648432;32;20255;-77
2020/12/23 04:17:43;;;;;;;25.48;12.38;;;13.30;99.90;;;;;;3621964;39;20278;-77
2020/12/23 04:20:09;;;;;;;19.98;12.27;;;13.30;99.90;;;;;;3621827;39;20247;-77
2020/12/23 04:22:36;;;;;;;20.33;11.73;;;13.30;99.90;;;;;;3624477;39;20263;-77
2020/12/23 04:25:05;;;;;;;19.55;10.73;;;13.30;99.90;;;;;;3621678;39;20266;-77
2020/12/23 04:27:32;;;;;;;26.85;10.60;;;13.30;99.90;;;;;;3621688;39;20266;-76
2020/12/23 04:29:59;;;;;;;21.70;11.63;;;13.30;99.90;;;;;;3621755;39;20288;-77
2020/12/23 04:32:26;;;;;;;21.42;11.07;;;13.40;99.90;;;;;;3628720;31;20284;-76
2020/12/23 04:34:52;;;;;;;18.23;10.85;;;13.40;99.90;;;;;;3621510;39;20344;-76
2020/12/23 04:37:19;;;;;;;19.42;9.85;;;13.40;99.90;;;;;;3622197;39;20271;-77
2020/12/23 04:39:46;;;;;;;20.75;11.48;;;13.40;99.90;;;;;;3628246;39;20256;-76
2020/12/23 04:42:13;;;;;;;17.67;9.98;;;13.40;99.90;;;;;;3621681;39;20256;-76
2020/12/23 04:44:40;;;;;;;16.00;9.80;;;13.40;99.90;;;;;;3621406;39;20259;-76
2020/12/23 04:47:10;;;;;;;15.98;9.63;;;13.50;99.90;;;;;;3624380;39;20247;-76
2020/12/23 04:49:38;;;;;;;23.92;10.48;;;13.50;99.90;;;;;;3622665;39;20290;-76
2020/12/23 04:52:07;;;;;;;15.45;9.50;;;13.50;99.90;;;;;;3631480;32;20283;-77
2020/12/23 04:54:35;;;;;;;19.63;9.30;;;13.50;99.90;;;;;;3622219;39;20256;-77
2020/12/23 04:57:03;;;;;;;17.42;9.38;;;13.40;99.90;;;;;;3622266;39;20278;-77
2020/12/23 04:59:29;;;;;;;15.05;9.07;;;13.30;99.90;;;;;;3621320;39;20267;-77
2020/12/23 05:01:58;;;;;;;19.17;9.25;;;13.30;99.90;;;;;;3621277;39;20277;-76
2020/12/23 05:04:26;;;;;;;19.52;9.50;;;13.30;99.90;;;;;;3621890;39;20244;-76
2020/12/23 05:07:01;;;;;;;12.35;7.78;;;13.20;99.90;;;;;;3623544;39;20345;-76
2020/12/23 05:09:28;;;;;;;15.27;9.43;;;13.20;99.90;;;;;;3623837;39;20286;-76
2020/12/23 05:11:55;;;;;;;17.45;8.75;;;13.20;99.90;;;;;;3621295;39;20729;-76
2020/12/23 05:14:23;;;;;;;13.02;7.10;;;13.10;99.90;;;;;;3621628;39;20266;-76
2020/12/23 05:16:51;;;;;;;12.02;7.30;;;13.10;99.90;;;;;;3620772;39;20391;-76
2020/12/23 05:19:18;;;;;;;14.50;7.45;;;13.10;99.90;;;;;;3621004;39;20274;-76
2020/12/23 05:21:46;;;;;;;15.82;7.95;;;13.10;99.90;;;;;;3620598;39;20344;-76
2020/12/23 05:24:13;;;;;;;15.68;7.10;;;13.10;99.90;;;;;;3620789;39;20276;-76
2020/12/23 05:26:42;;;;;;;12.48;6.45;;;13.10;99.90;;;;;;3621257;39;20285;-76
2020/12/23 05:29:10;;;;;;;13.88;6.15;;;13.10;99.90;;;;;;3621308;39;20275;-76
2020/12/23 05:31:38;;;;;;;9.07;6.18;;;13.00;99.90;;;;;;3620820;39;20284;-76
2020/12/23 05:34:05;;;;;;;6.93;4.82;;;13.10;99.90;;;;;;3620806;39;20270;-76
2020/12/23 05:36:33;;;;;;;10.63;5.70;;;13.00;99.90;;;;;;3621370;39;20276;-76
2020/12/23 05:39:00;;;;;;;11.23;6.20;;;13.00;99.90;;;;;;3621428;39;22639;-76
2020/12/23 05:41:27;;;;;;;9.50;6.63;;;13.10;99.90;;;;;;3620892;39;20851;-76
2020/12/23 05:43:54;;;;;;;14.55;6.70;;;13.00;99.90;;;;;;3620937;39;20256;-76
2020/12/23 05:46:21;;;;;;;11.52;6.97;;;13.00;99.90;;;;;;3633467;31;20236;-76
2020/12/23 05:48:48;;;;;;;11.93;7.35;;;13.10;99.90;;;;;;3642931;31;20299;-76
2020/12/23 05:51:15;;;;;;;15.35;7.75;;;13.10;99.90;;;;;;3621744;39;20326;-76
2020/12/23 05:53:42;;;;;;;11.70;6.50;;;13.10;99.90;;;;;;3620683;39;20296;-76
2020/12/23 05:56:09;;;;;;;12.80;6.68;;;13.10;99.90;;;;;;3621638;39;20279;-76
2020/12/23 05:58:38;;;;;;;15.93;6.88;;;13.10;99.90;;;;;;3623022;39;20244;-76
2020/12/23 06:01:07;;;;;;;10.98;6.45;;;13.10;99.90;;;;;;3623753;39;20297;-76
2020/12/23 06:03:52;;;;;;;14.52;5.95;;;13.10;99.90;;;;;;3622995;39;20259;-76
2020/12/23 06:06:23;;;;;;;8.27;5.55;;;13.10;99.90;;;;;;3620512;39;20267;-76
2020/12/23 06:08:54;;;;;;;9.23;5.88;;;13.10;99.90;;;;;;3620582;39;20244;-76
2020/12/23 06:11:31;;;;;;;13.23;6.05;;;13.10;99.90;;;;;;3620136;39;20281;-76
2020/12/23 06:14:20;;;;;;;11.63;5.70;;;13.00;99.90;;;;;;3622250;39;20258;-76
2020/12/23 06:16:49;;;;;;;11.73;5.85;;;13.00;99.90;;;;;;3620780;39;20268;-76
2020/12/23 06:19:28;;;;;;;7.80;5.55;;;13.00;99.90;;;;;;3621654;39;20255;-76
2020/12/23 06:21:56;;;;;;;7.30;5.35;;;12.90;99.90;;;;;;3621967;39;20239;-76
2020/12/23 06:24:23;;;;;;;13.80;5.13;;;12.90;99.90;;;;;;3625169;39;20244;-76
2020/12/23 06:26:51;;;;;;;9.40;5.65;;;13.00;99.90;;;;;;3622369;39;20368;-76
2020/12/23 06:29:19;;;;;;;10.88;5.72;;;13.00;99.90;;;;;;3620553;39;20280;-76
2020/12/23 06:31:47;;;;;;;8.00;5.30;;;12.90;99.90;;;;;;3623547;39;20268;-76
2020/12/23 06:34:20;;;;;;;10.23;5.50;;;13.00;99.90;;;;;;3621777;39;20264;-76
2020/12/23 06:36:48;;;;;;;8.90;5.90;;;13.00;99.90;;;;;;3622999;39;20314;-76
2020/12/23 06:39:21;;;;;;;11.57;5.80;;;13.00;99.90;;;;;;3622578;39;20244;-76
2020/12/23 06:41:48;;;;;;;10.93;6.72;;;13.00;99.90;;;;;;3622570;39;20804;-76
2020/12/23 06:44:15;;;;;;;10.95;7.35;;;13.00;99.90;;;;;;3620376;39;20368;-75
2020/12/23 06:47:08;;;;;;;17.80;7.22;;;13.00;99.90;;;;;;3620290;39;20326;-75
2020/12/23 06:49:35;;;;;;;10.10;7.30;;;13.00;99.90;;;;;;3620918;39;20336;-75
2020/12/23 06:52:27;;;;;;;12.02;8.02;;;13.00;99.90;;;;;;3624371;39;20251;-76
2020/12/23 06:54:55;;;;;;;12.93;7.57;;;13.00;99.90;;;;;;3623553;39;20280;-76
2020/12/23 06:57:50;;;;;;;12.70;8.05;;;13.10;99.90;;;;;;3620377;39;20379;-76
2020/12/23 07:00:35;;;;;;;9.95;7.40;;;13.00;99.90;;;;;;3621556;39;20244;-76
2020/12/23 07:03:10;;;;;;;10.65;7.28;;;13.00;99.90;;;;;;3614976;39;20266;-76
2020/12/23 07:05:45;;;;;;;15.40;8.20;;;13.00;99.90;;;;;;3622458;39;20277;-76
2020/12/23 07:08:17;;;;;;;10.20;7.25;;;13.00;99.90;;;;;;3620403;39;20339;-77
2020/12/23 07:10:47;;;;;;;12.25;7.60;;;13.00;99.90;;;;;;3623505;39;20271;-76
2020/12/23 07:13:16;;;;;;;12.05;7.45;;;13.00;99.90;;;;;;3627268;39;20262;-76
2020/12/23 07:15:44;;;;;;;11.23;7.60;;;13.00;99.90;;;;;;3621696;39;20310;-76
2020/12/23 07:18:12;;;;;;;11.30;7.07;;;12.90;99.90;;;;;;3621354;39;20244;-76
2020/12/23 07:20:41;;;;;;;11.93;6.78;;;12.90;99.90;;;;;;3621191;39;20380;-76
2020/12/23 07:23:10;;;;;;;8.80;6.43;;;12.90;99.90;;;;;;3622117;39;20279;-76
2020/12/23 07:25:39;;;;;;;11.40;6.82;;;13.00;99.90;;;;;;3622268;39;20283;-76
2020/12/23 07:28:09;;;;;;;9.70;6.03;;;13.00;99.90;;;;;;3622656;39;20282;-76
2020/12/23 07:30:38;;;;;;;8.38;6.45;;;13.00;99.90;;;;;;3625205;39;20266;-79
2020/12/23 07:33:10;;;;;;;12.35;6.65;;;12.90;99.90;;;;;;3622850;39;20162;-77
2020/12/23 07:35:38;;;;;;;10.55;5.88;;;12.90;99.90;;;;;;3623297;39;20266;-78
2020/12/23 07:38:07;;;;;;;6.75;5.50;;;12.90;99.90;;;;;;3623658;39;20352;-78
2020/12/23 07:40:34;;;;;;;6.85;5.10;;;12.90;99.90;;;;;;3626669;39;20343;-78
2020/12/23 07:43:03;;;;;;;7.82;5.22;;;12.90;99.90;;;;;;3630000;31;20260;-78
2020/12/23 07:45:30;;;;;;;8.88;4.97;;;12.80;99.90;;;;;;3624451;39;20248;-78
2020/12/23 07:48:00;;;;;;;9.02;5.22;;;12.80;99.90;;;;;;3623990;39;20243;-78
2020/12/23 07:50:30;;;;;;;8.38;5.03;;;12.90;99.90;;;;;;3628163;39;20244;-78
2020/12/23 07:52:57;;;;;;;7.20;4.70;;;12.90;99.90;;;;;;3623689;39;20294;-78
2020/12/23 07:55:25;;;;;;;7.18;4.50;;;12.90;99.90;;;;;;3623533;39;20228;-78
2020/12/23 07:57:52;;;;;;;9.02;4.30;;;12.90;99.90;;;;;;3623148;39;20244;-77
2020/12/23 08:00:21;;;;;;;7.47;5.20;;;12.90;99.90;;;;;;3623428;39;20274;-76
2020/12/23 08:02:48;;;;;;;4.85;3.97;;;12.90;99.90;;;;;;3622214;39;20439;-77
2020/12/23 08:05:16;;;;;;;6.05;4.60;;;12.90;99.90;;;;;;3626567;39;20772;-78
2020/12/23 08:07:44;;;;;;;4.72;4.07;;;12.90;99.90;;;;;;3626521;39;20721;-78
2020/12/23 08:10:13;;;;;;;7.18;4.38;;;13.00;99.90;;;;;;3627123;39;20316;-78
2020/12/23 08:12:41;;;;;;;6.25;4.45;;;13.00;99.90;;;;;;3623566;39;20269;-78
2020/12/23 08:15:14;;;;;;;8.23;5.30;;;13.00;99.90;;;;;;3623417;39;20287;-78
2020/12/23 08:17:42;;;;;;;6.78;5.10;;;13.00;99.90;;;;;;3626687;39;20266;-78
2020/12/23 08:20:11;;;;;;;12.43;5.47;;;13.00;99.90;;;;;;3623764;39;20267;-77
2020/12/23 08:25:21;;;;;;;20.63;5.97;;;13.00;99.90;;;;;;3621889;32;20244;-77
2020/12/23 08:27:50;;;;;;;8.27;6.10;;;12.90;99.90;;;;;;3626053;39;20272;-78
2020/12/23 08:30:18;;;;;;;9.93;5.57;;;13.00;99.90;;;;;;3627166;39;20263;-78
2020/12/23 08:32:52;;;;;;;15.73;5.10;;;13.00;99.90;;;;;;3624547;39;20259;-78
2020/12/23 08:35:19;;;;;;;6.68;5.60;;;13.00;99.90;;;;;;3622304;39;20267;-78
2020/12/23 08:37:46;;;;;;;6.63;4.78;;;13.10;99.90;;;;;;3623264;39;20236;-78
2020/12/23 08:40:16;;;;;;;9.85;5.47;;;13.10;99.90;;;;;;3626475;31;20270;-78
2020/12/23 08:42:51;;;;;;;5.70;4.55;;;13.10;99.90;;;;;;3634083;31;20374;-78
2020/12/23 08:45:22;;;;;;;8.75;4.85;;;13.10;99.90;;;;;;3622073;39;20325;-77
2020/12/23 08:47:50;;;;;;;8.02;4.82;;;13.10;99.90;;;;;;3622445;39;20278;-78
2020/12/23 08:50:18;;;;;;;6.30;4.82;;;13.20;99.90;;;;;;3627173;39;20247;-77
2020/12/23 08:52:46;;;;;;;5.15;3.97;;;13.20;99.90;;;;;;3622641;39;20254;-78
2020/12/23 08:55:17;;;;;;;7.63;4.40;;;13.30;99.90;;;;;;3646671;31;20259;-78
2020/12/23 08:57:45;;;;;;;6.65;4.50;;;13.30;99.90;;;;;;3632500;39;20232;-79
2020/12/23 09:00:17;;;;;;;8.65;5.20;;;13.30;99.90;;;;;;3632705;31;20105;-83
2020/12/23 09:05:41;;;;;;;6.93;4.10;;;13.40;99.90;;;;;;3662468;32;20255;-82
2020/12/23 09:08:11;;;;;;;6.95;4.28;;;13.50;99.90;;;;;;3631012;39;20264;-77
2020/12/23 09:10:39;;;;;;;7.72;4.40;;;13.50;99.90;;;;;;3621727;39;20256;-77
2020/12/23 09:13:08;;;;;;;11.95;4.35;;;13.60;99.90;;;;;;3624431;39;20239;-78
2020/12/23 09:15:34;;;;;;;7.85;3.58;;;13.60;99.90;;;;;;3621398;39;20279;-77
2020/12/23 09:18:12;;;;;;;5.65;4.05;;;13.70;99.90;;;;;;3623013;39;20795;-78
2020/12/23 09:20:40;;;;;;;8.18;4.53;;;13.80;99.90;;;;;;3624554;39;20283;-78
2020/12/23 09:23:08;;;;;;;4.85;3.60;;;13.90;99.90;;;;;;3621715;39;20266;-77
2020/12/23 09:25:36;;;;;;;6.00;3.50;;;13.90;99.90;;;;;;3639365;31;20388;-77
2020/12/23 09:28:07;;;;;;;4.80;3.35;;;14.00;99.90;;;;;;3625014;39;20296;-77
2020/12/23 09:30:39;;;;;;;6.38;3.67;;;14.00;99.90;;;;;;3623540;39;20272;-78
2020/12/23 09:33:07;;;;;;;5.00;3.55;;;14.00;99.90;;;;;;3625396;39;20360;-78
2020/12/23 09:35:35;;;;;;;4.32;3.50;;;14.10;99.90;;;;;;3625420;39;20149;-79
2020/12/23 09:38:24;;;;;;;4.10;3.50;;;14.10;99.90;;;;;;3628489;39;20251;-79
2020/12/23 09:40:52;;;;;;;4.88;3.67;;;14.10;99.90;;;;;;3625397;39;20374;-79
2020/12/23 09:43:20;;;;;;;3.40;2.95;;;14.10;99.90;;;;;;3625589;39;20317;-79
2020/12/23 09:51:11;;;;;;;4.57;4.07;;;14.20;99.90;;;;;;3636908;32;20324;-80
2020/12/23 09:53:41;;;;;;;6.57;3.80;;;14.20;99.90;;;;;;3627592;39;20275;-78
2020/12/23 09:56:15;;;;;;;4.93;3.63;;;14.20;99.90;;;;;;3626585;31;20263;-79
2020/12/23 10:01:25;;;;;;;8.85;3.58;;;14.30;99.90;;;;;;3631003;32;20248;-80
2020/12/23 10:03:51;;;;;;;4.32;3.90;;;14.20;99.90;;;;;;3624599;39;20236;-79
2020/12/23 10:06:19;;;;;;;4.60;3.63;;;14.30;99.90;;;;;;3627372;39;20341;-78
2020/12/23 10:08:48;;;;;;;3.92;3.60;;;14.30;99.90;;;;;;3657234;32;20701;-78
2020/12/23 10:11:17;;;;;;;8.15;3.63;;;14.30;99.90;;;;;;3623356;39;20363;-78
2020/12/23 10:13:45;;;;;;;4.70;4.20;;;14.40;99.90;;;;;;3624395;39;20271;-77
2020/12/23 10:16:11;;;;;;;15.75;5.68;;;14.30;99.90;;;;;;3621546;39;20304;-78
2020/12/23 10:21:19;;;;;;;11.48;3.95;;;14.30;99.90;;;;;;3641413;31;20264;-80
2020/12/23 10:23:47;;;;;;;4.82;3.63;;;14.30;99.90;;;;;;3628547;39;20248;-79
2020/12/23 10:28:59;;;;;;;8.18;3.90;;;14.20;99.90;;;;;;3622820;32;20256;-79
2020/12/23 10:31:25;;;;;;;5.80;3.38;;;14.20;99.90;;;;;;3627234;39;20260;-78
2020/12/23 10:33:53;;;;;;;7.28;3.88;;;14.30;99.90;;;;;;3621209;39;20252;-78
2020/12/23 10:36:25;;;;;;;7.70;3.50;;;14.30;99.90;;;;;;3633216;31;20667;-78
2020/12/23 10:38:54;;;;;;;5.10;3.67;;;14.30;99.90;;;;;;3622859;39;20316;-78
2020/12/23 10:41:21;;;;;;;4.38;2.55;;;14.30;99.90;;;;;;3626178;39;20275;-79
2020/12/23 10:43:48;;;;;;;2.78;2.58;;;14.30;99.90;;;;;;3625529;39;20289;-79
2020/12/23 10:48:59;;;;;;;15.43;10.02;;;14.30;99.90;;;;;;3627793;39;20742;-79
2020/12/23 10:51:25;;;;;;;14.75;10.13;;;14.30;99.90;;;;;;3629019;39;20255;-80
2020/12/23 10:53:53;;;;;;;6.00;3.78;;;14.20;99.90;;;;;;3630361;39;20273;-79
2020/12/23 10:56:19;;;;;;;3.40;3.10;;;14.20;99.90;;;;;;3628725;39;20275;-80
2020/12/23 10:58:46;;;;;;;3.65;3.10;;;14.10;99.90;;;;;;3628641;39;20270;-79
2020/12/23 11:01:17;;;;;;;7.13;3.20;;;14.10;99.90;;;;;;3626427;39;20247;-79
2020/12/23 11:05:07;;;;;;;12.07;3.65;;;14.10;99.90;;;;;;3633019;39;20431;-79
2020/12/23 11:07:33;;;;;;;6.03;4.20;;;14.10;99.90;;;;;;3643696;31;20259;-79
2020/12/23 11:10:00;;;;;;;3.30;3.00;;;14.20;99.90;;;;;;3635517;39;20251;-80
2020/12/23 11:12:26;;;;;;;2.97;2.70;;;14.20;99.90;;;;;;3632774;39;20629;-77
2020/12/23 11:14:52;;;;;;;3.17;2.88;;;14.20;99.90;;;;;;3634747;39;20274;-80
2020/12/23 11:17:19;;;;;;;2.88;2.45;;;14.20;99.90;;;;;;3631833;39;20251;-77
2020/12/23 11:19:48;;;;;;;2.92;2.30;;;14.20;99.90;;;;;;3633731;39;20386;-77
2020/12/23 11:22:15;;;;;;;3.50;2.60;;;14.30;99.90;;;;;;3662142;31;20372;-78
2020/12/23 11:24:41;;;;;;;7.45;2.25;;;14.30;99.90;;;;;;3633353;39;20252;-79
2020/12/23 11:27:08;;;;;;;3.65;2.53;;;14.40;99.90;;;;;;3630195;39;20270;-77
2020/12/23 11:29:34;;;;;;;8.07;4.05;;;14.40;99.90;;;;;;3635698;39;20786;-78
2020/12/23 11:32:01;;;;;;;4.70;2.40;;;14.40;99.90;;;;;;3634038;39;20283;-78
2020/12/23 11:34:31;;;;;;;2.78;2.58;;;14.30;99.90;;;;;;3636838;39;20262;-80
2020/12/23 11:36:58;;;;;;;2.05;1.95;;;14.30;99.90;;;;;;3637808;39;20259;-81
2020/12/23 11:39:26;;;;;;;3.60;2.67;;;14.30;99.90;;;;;;3636401;39;20259;-81
2020/12/23 11:41:54;;;;;;;4.85;2.55;;;14.30;99.90;;;;;;3634841;39;20280;-78
2020/12/23 11:44:21;;;;;;;2.83;2.20;;;14.20;99.90;;;;;;3632204;39;20259;-77
2020/12/23 11:49:29;;;;;;;5.03;4.63;;;14.20;99.90;;;;;;3643622;31;20271;-78
2020/12/23 11:51:55;;;;;;;5.15;2.72;;;14.20;99.90;;;;;;3631814;39;20274;-77
2020/12/23 11:54:22;;;;;;;4.43;2.70;;;14.10;99.90;;;;;;3634843;39;20851;-78
2020/12/23 11:56:50;;;;;;;4.75;2.90;;;14.00;99.90;;;;;;3634938;39;20302;-80
2020/12/23 11:59:18;;;;;;;3.20;2.25;;;13.90;99.90;;;;;;3631031;39;20303;-78
2020/12/23 12:01:44;;;;;;;2.30;2.10;;;13.90;99.90;;;;;;3629491;39;20255;-78
2020/12/23 12:04:11;;;;;;;4.43;2.55;;;13.80;99.90;;;;;;3636396;39;20300;-78
2020/12/23 12:06:39;;;;;;;4.25;3.00;;;13.70;99.90;;;;;;3639416;31;20252;-78
2020/12/23 12:14:43;;;;;;;7.07;2.38;;;13.50;99.90;;;;;;3632009;32;20255;-77
2020/12/23 12:19:55;;;;;;;3.80;2.60;;;13.40;99.90;;;;;;3628236;32;20289;-78
2020/12/23 12:25:12;;;;;;;8.75;3.65;;;13.20;99.90;;;;;;3646470;31;20273;-78
2020/12/23 12:30:36;;;;;;;5.57;3.28;;;13.10;99.90;;;;;;3634365;32;20271;-77
2020/12/23 12:33:07;;;;;;;5.65;2.50;;;13.10;99.90;;;;;;3625148;39;20275;-78
2020/12/23 12:35:34;;;;;;;5.47;2.42;;;13.10;99.90;;;;;;3628901;39;20255;-78
2020/12/23 12:38:00;;;;;;;4.53;2.42;;;13.10;99.90;;;;;;3627598;39;20247;-79
2020/12/23 12:43:12;;;;;;;4.60;2.20;;;13.10;99.90;;;;;;3624152;32;20380;-77
2020/12/23 12:45:39;;;;;;;2.20;2.00;;;13.10;99.90;;;;;;3625057;39;20256;-79
2020/12/23 12:56:09;;;;;;;2.13;1.92;;;12.90;99.90;;;;;;3649015;31;20277;-78
2020/12/23 12:58:35;;;;;;;4.57;3.90;;;12.80;99.90;;;;;;3643215;32;20286;-78
2020/12/23 13:01:02;;;;;;;2.17;1.90;;;12.80;99.90;;;;;;3628630;32;20379;-78
2020/12/23 13:11:40;;;;;;;3.95;1.90;;;12.90;99.90;;;;;;3626861;32;20256;-78
2020/12/23 13:17:04;;;;;;;3.22;2.80;;;12.80;99.90;;;;;;3629924;31;20236;-78
2020/12/23 13:19:35;;;;;;;2.85;2.45;;;12.90;99.90;;;;;;3629240;39;20263;-78
2020/12/23 13:22:02;;;;;;;3.15;2.90;;;12.90;99.90;;;;;;3624858;39;20272;-78
2020/12/23 13:24:28;;;;;;;3.97;3.50;;;13.00;99.90;;;;;;3627602;39;20243;-78
2020/12/23 13:26:55;;;;;;;2.28;2.03;;;13.00;99.90;;;;;;3624758;39;20256;-78
2020/12/23 13:29:21;;;;;;;3.05;1.52;;;13.10;99.90;;;;;;3628691;39;20267;-78
2020/12/23 13:31:49;;;;;;;3.13;2.00;;;13.10;99.90;;;;;;3625345;39;20252;-79
2020/12/23 13:34:20;;;;;;;1.83;1.73;;;13.10;99.90;;;;;;3624547;39;20256;-79
2020/12/23 13:36:51;;;;;;;2.20;1.98;;;13.20;99.90;;;;;;3623385;39;20248;-79
2020/12/23 13:39:17;;;;;;;4.75;1.98;;;13.20;99.90;;;;;;3627220;39;20254;-80
2020/12/23 13:41:47;;;;;;;3.50;2.10;;;13.20;99.90;;;;;;3624277;39;20247;-80
2020/12/23 13:44:15;;;;;;;2.50;2.03;;;13.10;99.90;;;;;;3629665;39;20247;-80